PWSweather.com
Personal Weather Stations
Station Observations
948974
Valtournenche, AostaIT 11028

ValtournencheAostaIT 11028

Lat: 45.877222, Lon: 7.625556

Elevation: 5085.3018

Station Type: PCE-FWS 20

http://www.cdso.it

High Low Average
Temperature 53.9°F12.2°C 25.1°F-3.8°C 37.6°F3.1°C
Dew Point 22.1°F-5.5°C 8.3°F-13.2°C 13.6°F-10.2°C
Winds 6.0 mph 9.7 kmh 1.0 mph 1.6 kmh 3.0 mph E4.8 kmh E
Wind Gusts 11.0 mph17.7 kmh 2.0 mph3.2 kmh 5.0 mph8.0 kmh
Humidity 63% 21% 39%
Pressure 30.63 in1037.3 mb 30.28 in1025.4 mb -
Precipitation 0.00 in0.0 mm - -
Hour Temp Dew Point Humidity Winds Wind Gusts Pressure Precip Precip Rate Daily Precip Total
12:21 AM 28.8°F-1.8°C 17.3°F-8.2°C 62% 1.0 mph NE1.6 kmh NE 2.0 mph3.2 kmh 30.56 in1034.9 mb 0.00 in0.0 mm 0.00 in0.0 mm 0.00 in0.0 mm
12:42 AM 28.5°F-1.9°C 16.6°F-8.6°C 60% 1.0 mph NE1.6 kmh NE 3.0 mph4.8 kmh 30.57 in1035.2 mb 0.00 in0.0 mm 0.00 in0.0 mm 0.00 in0.0 mm
01:03 AM 28.6°F-1.9°C 17.6°F-8.0°C 63% 2.0 mph NE3.2 kmh NE 3.0 mph4.8 kmh 30.57 in1035.2 mb 0.00 in0.0 mm 0.00 in0.0 mm 0.00 in0.0 mm
01:21 AM 28.2°F-2.1°C 17.2°F-8.2°C 63% 2.0 mph NE3.2 kmh NE 3.0 mph4.8 kmh 30.58 in1035.6 mb 0.00 in0.0 mm 0.00 in0.0 mm 0.00 in0.0 mm
01:42 AM 27.9°F-2.3°C 15.8°F-9.0°C 60% 3.0 mph NE4.8 kmh NE 4.0 mph6.4 kmh 30.58 in1035.6 mb 0.00 in0.0 mm 0.00 in0.0 mm 0.00 in0.0 mm
02:03 AM 27.5°F-2.5°C 14.6°F-9.7°C 58% 1.0 mph NE1.6 kmh NE 2.0 mph3.2 kmh 30.59 in1035.9 mb 0.00 in0.0 mm 0.00 in0.0 mm 0.00 in0.0 mm
02:21 AM 27.4°F-2.6°C 14.2°F-9.9°C 57% 2.0 mph NE3.2 kmh NE 4.0 mph6.4 kmh 30.59 in1035.9 mb 0.00 in0.0 mm 0.00 in0.0 mm 0.00 in0.0 mm
02:42 AM 27.2°F-2.7°C 14.2°F-9.9°C 58% 1.0 mph NE1.6 kmh NE 2.0 mph3.2 kmh 30.59 in1035.9 mb 0.00 in0.0 mm 0.00 in0.0 mm 0.00 in0.0 mm
03:03 AM 27.1°F-2.7°C 15.0°F-9.4°C 60% 3.0 mph NE4.8 kmh NE 6.0 mph9.7 kmh 30.59 in1035.9 mb 0.00 in0.0 mm 0.00 in0.0 mm 0.00 in0.0 mm
03:21 AM 26.9°F-2.8°C 13.5°F-10.3°C 56% 1.0 mph NE1.6 kmh NE 3.0 mph4.8 kmh 30.59 in1035.9 mb 0.00 in0.0 mm 0.00 in0.0 mm 0.00 in0.0 mm
03:42 AM 26.6°F-3.0°C 13.1°F-10.5°C 56% 1.0 mph NE1.6 kmh NE 2.0 mph3.2 kmh 30.58 in1035.6 mb 0.00 in0.0 mm 0.00 in0.0 mm 0.00 in0.0 mm
04:03 AM 26.3°F-3.2°C 12.7°F-10.7°C 56% 2.0 mph NNE3.2 kmh NNE 3.0 mph4.8 kmh 30.58 in1035.6 mb 0.00 in0.0 mm 0.00 in0.0 mm 0.00 in0.0 mm
04:21 AM 26.2°F-3.2°C 12.2°F-11.0°C 55% 2.0 mph NE3.2 kmh NE 4.0 mph6.4 kmh 30.59 in1035.9 mb 0.00 in0.0 mm 0.00 in0.0 mm 0.00 in0.0 mm
04:42 AM 25.7°F-3.5°C 12.2°F-11.0°C 56% 2.0 mph 3.2 kmh 3.0 mph4.8 kmh 30.60 in1036.2 mb 0.00 in0.0 mm 0.00 in0.0 mm 0.00 in0.0 mm
05:03 AM 25.7°F-3.5°C 12.0°F-11.1°C 55% 2.0 mph 3.2 kmh 3.0 mph4.8 kmh 30.60 in1036.2 mb 0.00 in0.0 mm 0.00 in0.0 mm 0.00 in0.0 mm
05:21 AM 25.4°F-3.7°C 11.9°F-11.2°C 56% 2.0 mph 3.2 kmh 3.0 mph4.8 kmh 30.60 in1036.2 mb 0.00 in0.0 mm 0.00 in0.0 mm 0.00 in0.0 mm
05:42 AM 25.4°F-3.7°C 11.8°F-11.2°C 56% 3.0 mph N4.8 kmh N 6.0 mph9.7 kmh 30.60 in1036.2 mb 0.00 in0.0 mm 0.00 in0.0 mm 0.00 in0.0 mm
06:03 AM 25.6°F-3.6°C 11.3°F-11.5°C 54% 3.0 mph 4.8 kmh 4.0 mph6.4 kmh 30.60 in1036.2 mb 0.00 in0.0 mm 0.00 in0.0 mm 0.00 in0.0 mm
06:21 AM 25.7°F-3.5°C 11.1°F-11.6°C 53% 2.0 mph 3.2 kmh 4.0 mph6.4 kmh 30.60 in1036.2 mb 0.00 in0.0 mm 0.00 in0.0 mm 0.00 in0.0 mm
06:42 AM 25.1°F-3.8°C 10.8°F-11.8°C 54% 1.0 mph 1.6 kmh 4.0 mph6.4 kmh 30.61 in1036.6 mb 0.00 in0.0 mm 0.00 in0.0 mm 0.00 in0.0 mm
07:03 AM 25.3°F-3.7°C 11.0°F-11.7°C 54% 1.0 mph 1.6 kmh 3.0 mph4.8 kmh 30.62 in1036.9 mb 0.00 in0.0 mm 0.00 in0.0 mm 0.00 in0.0 mm
07:21 AM 25.2°F-3.8°C 11.2°F-11.6°C 55% 1.0 mph 1.6 kmh 3.0 mph4.8 kmh 30.63 in1037.3 mb 0.00 in0.0 mm 0.00 in0.0 mm 0.00 in0.0 mm
07:42 AM 25.4°F-3.7°C 11.4°F-11.4°C 55% 2.0 mph 3.2 kmh 3.0 mph4.8 kmh 30.63 in1037.3 mb 0.00 in0.0 mm 0.00 in0.0 mm 0.00 in0.0 mm
08:21 AM 26.3°F-3.2°C 10.7°F-11.8°C 51% 2.0 mph 3.2 kmh 3.0 mph4.8 kmh 30.62 in1036.9 mb 0.00 in0.0 mm 0.00 in0.0 mm 0.00 in0.0 mm
08:42 AM 27.1°F-2.7°C 9.5°F-12.5°C 47% 1.0 mph 1.6 kmh 4.0 mph6.4 kmh 30.61 in1036.6 mb 0.00 in0.0 mm 0.00 in0.0 mm 0.00 in0.0 mm
09:03 AM 32.6°F0.3°C 13.4°F-10.3°C 45% 1.0 mph 1.6 kmh 2.0 mph3.2 kmh 30.55 in1034.5 mb 0.00 in0.0 mm 0.00 in0.0 mm 0.00 in0.0 mm
09:21 AM 36.6°F2.6°C 10.4°F-12.0°C 33% 1.0 mph NW1.6 kmh NW 3.0 mph4.8 kmh 30.51 in1033.2 mb 0.00 in0.0 mm 0.00 in0.0 mm 0.00 in0.0 mm
09:42 AM 37.1°F2.8°C 13.9°F-10.1°C 38% 1.0 mph WSW1.6 kmh WSW 3.0 mph4.8 kmh 30.51 in1033.2 mb 0.00 in0.0 mm 0.00 in0.0 mm 0.00 in0.0 mm
10:03 AM 38.2°F3.4°C 15.3°F-9.3°C 39% 1.0 mph NNW1.6 kmh NNW 3.0 mph4.8 kmh 30.50 in1032.8 mb 0.00 in0.0 mm 0.00 in0.0 mm 0.00 in0.0 mm
10:21 AM 39.7°F4.3°C 14.0°F-10.0°C 34% 2.0 mph SW3.2 kmh SW 4.0 mph6.4 kmh 30.48 in1032.2 mb 0.00 in0.0 mm 0.00 in0.0 mm 0.00 in0.0 mm
10:42 AM 39.5°F4.2°C 12.2°F-11.0°C 32% 3.0 mph WSW4.8 kmh WSW 5.0 mph8.0 kmh 30.48 in1032.2 mb 0.00 in0.0 mm 0.00 in0.0 mm 0.00 in0.0 mm
11:03 AM 41.2°F5.1°C 15.3°F-9.3°C 34% 3.0 mph SSW4.8 kmh SSW 6.0 mph9.7 kmh 30.46 in1031.5 mb 0.00 in0.0 mm 0.00 in0.0 mm 0.00 in0.0 mm
11:21 AM 41.4°F5.2°C 15.0°F-9.4°C 34% 3.0 mph W4.8 kmh W 6.0 mph9.7 kmh 30.45 in1031.2 mb 0.00 in0.0 mm 0.00 in0.0 mm 0.00 in0.0 mm
11:42 AM 43.2°F6.2°C 17.3°F-8.2°C 35% 3.0 mph S4.8 kmh S 6.0 mph9.7 kmh 30.43 in1030.5 mb 0.00 in0.0 mm 0.00 in0.0 mm 0.00 in0.0 mm
12:03 PM 44.1°F6.7°C 18.6°F-7.4°C 36% 3.0 mph SSW4.8 kmh SSW 7.0 mph11.3 kmh 30.42 in1030.1 mb 0.00 in0.0 mm 0.00 in0.0 mm 0.00 in0.0 mm
12:21 PM 45.4°F7.4°C 20.0°F-6.7°C 36% 4.0 mph S6.4 kmh S 6.0 mph9.7 kmh 30.41 in1029.8 mb 0.00 in0.0 mm 0.00 in0.0 mm 0.00 in0.0 mm
12:42 PM 46.2°F7.9°C 22.1°F-5.5°C 38% 5.0 mph S8.0 kmh S 8.0 mph12.9 kmh 30.40 in1029.5 mb 0.00 in0.0 mm 0.00 in0.0 mm 0.00 in0.0 mm
01:03 PM 50.3°F10.2°C 18.2°F-7.7°C 28% 2.0 mph S3.2 kmh S 5.0 mph8.0 kmh 30.34 in1027.4 mb 0.00 in0.0 mm 0.00 in0.0 mm 0.00 in0.0 mm
01:21 PM 51.2°F10.7°C 14.4°F-9.8°C 23% 4.0 mph S6.4 kmh S 8.0 mph12.9 kmh 30.33 in1027.1 mb 0.00 in0.0 mm 0.00 in0.0 mm 0.00 in0.0 mm
01:42 PM 49.8°F9.9°C 14.1°F-9.9°C 24% 3.0 mph WSW4.8 kmh WSW 7.0 mph11.3 kmh 30.34 in1027.4 mb 0.00 in0.0 mm 0.00 in0.0 mm 0.00 in0.0 mm
02:21 PM 50.1°F10.1°C 14.1°F-9.9°C 23% 5.0 mph S8.0 kmh S 11.0 mph17.7 kmh 30.33 in1027.1 mb 0.00 in0.0 mm 0.00 in0.0 mm 0.00 in0.0 mm
02:42 PM 51.3°F10.7°C 14.2°F-9.9°C 22% 6.0 mph S9.7 kmh S 11.0 mph17.7 kmh 30.31 in1026.4 mb 0.00 in0.0 mm 0.00 in0.0 mm 0.00 in0.0 mm
03:03 PM 53.0°F11.7°C 14.9°F-9.5°C 22% 6.0 mph S9.7 kmh S 11.0 mph17.7 kmh 30.29 in1025.7 mb 0.00 in0.0 mm 0.00 in0.0 mm 0.00 in0.0 mm
03:21 PM 53.2°F11.8°C 14.5°F-9.7°C 21% 5.0 mph S8.0 kmh S 8.0 mph12.9 kmh 30.28 in1025.4 mb 0.00 in0.0 mm 0.00 in0.0 mm 0.00 in0.0 mm
03:42 PM 52.8°F11.6°C 14.0°F-10.0°C 21% 6.0 mph S9.7 kmh S 9.0 mph14.5 kmh 30.29 in1025.7 mb 0.00 in0.0 mm 0.00 in0.0 mm 0.00 in0.0 mm
04:03 PM 52.4°F11.3°C 13.9°F-10.1°C 21% 6.0 mph S9.7 kmh S 10.0 mph16.1 kmh 30.29 in1025.7 mb 0.00 in0.0 mm 0.00 in0.0 mm 0.00 in0.0 mm
04:21 PM 52.2°F11.2°C 14.1°F-9.9°C 22% 6.0 mph S9.7 kmh S 10.0 mph16.1 kmh 30.29 in1025.7 mb 0.00 in0.0 mm 0.00 in0.0 mm 0.00 in0.0 mm
04:42 PM 52.1°F11.2°C 14.9°F-9.5°C 22% 4.0 mph S6.4 kmh S 8.0 mph12.9 kmh 30.30 in1026.1 mb 0.00 in0.0 mm 0.00 in0.0 mm 0.00 in0.0 mm
05:03 PM 53.9°F12.2°C 14.9°F-9.5°C 21% 2.0 mph S3.2 kmh S 7.0 mph11.3 kmh 30.28 in1025.4 mb 0.00 in0.0 mm 0.00 in0.0 mm 0.00 in0.0 mm
05:21 PM 52.0°F11.1°C 13.7°F-10.2°C 21% 1.0 mph S1.6 kmh S 4.0 mph6.4 kmh 30.30 in1026.1 mb 0.00 in0.0 mm 0.00 in0.0 mm 0.00 in0.0 mm
05:42 PM 48.5°F9.2°C 13.9°F-10.1°C 25% 1.0 mph S1.6 kmh S 3.0 mph4.8 kmh 30.34 in1027.4 mb 0.00 in0.0 mm 0.00 in0.0 mm 0.00 in0.0 mm
06:03 PM 47.0°F8.3°C 13.6°F-10.2°C 26% 1.0 mph S1.6 kmh S 3.0 mph4.8 kmh 30.36 in1028.1 mb 0.00 in0.0 mm 0.00 in0.0 mm 0.00 in0.0 mm
06:21 PM 45.6°F7.6°C 10.9°F-11.7°C 24% 3.0 mph S4.8 kmh S 6.0 mph9.7 kmh 30.38 in1028.8 mb 0.00 in0.0 mm 0.00 in0.0 mm 0.00 in0.0 mm
06:42 PM 44.1°F6.7°C 11.4°F-11.4°C 26% 4.0 mph NNE6.4 kmh NNE 7.0 mph11.3 kmh 30.40 in1029.5 mb 0.00 in0.0 mm 0.00 in0.0 mm 0.00 in0.0 mm
07:03 PM 43.3°F6.3°C 11.8°F-11.2°C 27% 4.0 mph 6.4 kmh 7.0 mph11.3 kmh 30.41 in1029.8 mb 0.00 in0.0 mm 0.00 in0.0 mm 0.00 in0.0 mm
07:21 PM 42.4°F5.8°C 12.7°F-10.7°C 29% 5.0 mph 8.0 kmh 8.0 mph12.9 kmh 30.43 in1030.5 mb 0.00 in0.0 mm 0.00 in0.0 mm 0.00 in0.0 mm
07:42 PM 40.6°F4.8°C 14.0°F-10.0°C 33% 4.0 mph 6.4 kmh 7.0 mph11.3 kmh 30.46 in1031.5 mb 0.00 in0.0 mm 0.00 in0.0 mm 0.00 in0.0 mm
08:03 PM 40.7°F4.8°C 12.8°F-10.7°C 32% 5.0 mph 8.0 kmh 7.0 mph11.3 kmh 30.46 in1031.5 mb 0.00 in0.0 mm 0.00 in0.0 mm 0.00 in0.0 mm
08:21 PM 38.6°F3.7°C 14.1°F-9.9°C 36% 3.0 mph 4.8 kmh 6.0 mph9.7 kmh 30.49 in1032.5 mb 0.00 in0.0 mm 0.00 in0.0 mm 0.00 in0.0 mm
08:42 PM 39.4°F4.1°C 12.8°F-10.7°C 33% 6.0 mph N9.7 kmh N 9.0 mph14.5 kmh 30.48 in1032.2 mb 0.00 in0.0 mm 0.00 in0.0 mm 0.00 in0.0 mm
09:03 PM 38.7°F3.7°C 12.8°F-10.7°C 34% 4.0 mph 6.4 kmh 5.0 mph8.0 kmh 30.50 in1032.8 mb 0.00 in0.0 mm 0.00 in0.0 mm 0.00 in0.0 mm
09:21 PM 38.9°F3.8°C 12.6°F-10.8°C 34% 5.0 mph 8.0 kmh 7.0 mph11.3 kmh 30.50 in1032.8 mb 0.00 in0.0 mm 0.00 in0.0 mm 0.00 in0.0 mm
10:03 PM 37.7°F3.2°C 11.2°F-11.6°C 33% 3.0 mph 4.8 kmh 5.0 mph8.0 kmh 30.52 in1033.5 mb 0.00 in0.0 mm 0.00 in0.0 mm 0.00 in0.0 mm
10:21 PM 37.8°F3.2°C 11.3°F-11.5°C 33% 4.0 mph 6.4 kmh 7.0 mph11.3 kmh 30.52 in1033.5 mb 0.00 in0.0 mm 0.00 in0.0 mm 0.00 in0.0 mm
10:42 PM 38.0°F3.3°C 11.0°F-11.7°C 32% 4.0 mph NE6.4 kmh NE 8.0 mph12.9 kmh 30.52 in1033.5 mb 0.00 in0.0 mm 0.00 in0.0 mm 0.00 in0.0 mm
11:03 PM 38.4°F3.6°C 10.9°F-11.7°C 32% 4.0 mph NE6.4 kmh NE 8.0 mph12.9 kmh 30.52 in1033.5 mb 0.00 in0.0 mm 0.00 in0.0 mm 0.00 in0.0 mm
11:21 PM 37.4°F3.0°C 8.3°F-13.2°C 29% 3.0 mph 4.8 kmh 6.0 mph9.7 kmh 30.53 in1033.9 mb 0.00 in0.0 mm 0.00 in0.0 mm 0.00 in0.0 mm
11:42 PM 37.0°F2.8°C 9.3°F-12.6°C 31% 3.0 mph 4.8 kmh 6.0 mph9.7 kmh 30.53 in1033.9 mb 0.00 in0.0 mm 0.00 in0.0 mm 0.00 in0.0 mm
11:55 PM 36.1°F2.3°C 9.2°F-12.7°C 32% 4.0 mph 6.4 kmh 7.0 mph11.3 kmh 30.54 in1034.2 mb 0.00 in0.0 mm 0.00 in0.0 mm 0.00 in0.0 mm